Airfield :







YOU CAN JOIN US ON...

 
LOGIN :

Register | Disclaimer

   EN    FR    IT 

 









Legend :    VFR   Marginal VFR   IFR   Intensive IFR   Very Intensive IFR
Visi :
Ceiling :
>= 8 km
>= 3000ft
5 to 8 km
1000 to 3000 ft
1500m to 5 km
500 to 1000 ft
800 to 1500m
200 to 500 ft
< 800m
< 200 ft
Symbols :   Thunderstorms  Fog  Heavy snow  Heavy precipitations  Wind > 20 kt






- Airport Elevation : 377 ft
- IATA code : YPS


CYPD - Port Hawkesbury

CURRENT METAR :
  • 090444Z AUTO 14011G19KT 8SM -RA BKN005 OVC010 04/04 A2904 RMK SLP839

EXPIRED METARs :
  • 090435Z AUTO 14013G19KT 7SM -RA OVC003 04/03 A2905 RMK PRESFR SLP841
  • 090427Z AUTO 13014G20KT 4SM -RA BR OVC003 03/03 A2905 RMK PRESFR SLP843
  • 090411Z AUTO 13010G18KT 3SM BR OVC003 03/03 A2907 RMK PRESFR SLP850
  • 090355Z AUTO 12013G22KT 2 1/2SM BR OVC003 04/03 A2909 RMK PRESFR SLP856
  • 090335Z AUTO 12012G22KT 1 3/4SM BR OVC003 04/04 A2911 RMK SLP864
  • 090302Z AUTO 12015G21KT 2 1/4SM -RA BR OVC003 04/04 A2914 RMK SLP873
  • 090251Z AUTO 12018G27KT 3SM -RA BR OVC003 04/04 A2914 RMK SLP874
  • 090235Z AUTO 11016G24KT 4SM BR OVC003 04/04 A2915 RMK PRESFR SLP876
  • 090225Z AUTO 11016G25KT 4SM -RA BR OVC003 04/04 A2916 RMK SLP880
  • 090205Z AUTO 11017G24KT 4SM BR OVC003 05/04 A2917 RMK SLP884

TAF N/A
CZQM FIR / North America



MET'MAP, your aeronautical weather chart ! - Copyright ORBIFLY December 2007 - Disclaimer

ORBIFLY MET'MAP TEAM :

Programming & Development : Alexandra Zaïnal
Concept & original design : Baudouin d'Aumeries
Assistance for programming : Marc-Olivier Méhu
Technical & hardware support : Manuel Goepfert

Contact : metmap@orbifly.com




SOURCES & CREDITS :

   NOAA